Time;durP1;ratioP1;P1;durP2;ratioP2;P2;SDS_P1;SDS_P2;PMS_P1;PMS_P2;Temp;Humidity;BMP_temperature;BMP_pressure;BME280_temperature;BME280_humidity;BME280_pressure;Samples;Min_cycle;Max_cycle;Signal;HPM_P1;HPM_P2
2022/05/25 00:02:05;;;;;;;3.40;3.10;;;;;;;12.58;100.00;96040.66;5060786;28;20453;-80
2022/05/25 00:04:32;;;;;;;3.70;3.33;;;;;;;12.51;100.00;96021.16;5076271;28;20436;-80
2022/05/25 00:06:59;;;;;;;3.20;2.90;;;;;;;12.40;100.00;96000.47;5093801;28;20501;-81
2022/05/25 00:09:26;;;;;;;3.13;2.83;;;;;;;12.35;100.00;96008.69;5077337;28;20456;-81
2022/05/25 00:11:53;;;;;;;3.47;3.27;;;;;;;12.50;100.00;96044.25;5072981;28;20506;-80
2022/05/25 00:14:20;;;;;;;3.70;3.10;;;;;;;12.35;100.00;96045.81;5093274;28;20459;-80
2022/05/25 00:16:46;;;;;;;3.67;3.27;;;;;;;12.34;100.00;96038.97;5077293;28;20494;-80
2022/05/25 00:21:59;;;;;;;3.50;3.30;;;;;;;12.48;100.00;96072.22;5075891;28;20539;-81
2022/05/25 00:24:25;;;;;;;4.47;4.07;;;;;;;12.29;100.00;96019.91;5059440;28;20441;-81
2022/05/25 00:26:52;;;;;;;3.20;2.90;;;;;;;12.72;100.00;96064.06;5059476;28;20444;-80
2022/05/25 00:29:19;;;;;;;5.63;3.20;;;;;;;12.66;100.00;96033.59;5075492;28;20482;-81
2022/05/25 00:31:47;;;;;;;3.20;3.00;;;;;;;12.60;100.00;96027.03;5077561;28;20468;-80
2022/05/25 00:34:14;;;;;;;2.93;2.73;;;;;;;12.57;100.00;96062.97;5055445;28;20442;-81
2022/05/25 00:36:41;;;;;;;5.10;3.33;;;;;;;11.96;100.00;95989.25;5084452;28;20781;-81
2022/05/25 00:39:07;;;;;;;3.37;3.13;;;;;;;12.31;100.00;96034.38;5077540;28;20475;-80
2022/05/25 00:41:35;;;;;;;2.97;2.70;;;;;;;12.41;100.00;96054.25;5059358;28;20928;-81
2022/05/25 00:44:03;;;;;;;2.87;2.67;;;;;;;12.47;100.00;96033.56;5075955;28;20470;-81
2022/05/25 00:46:32;;;;;;;5.30;3.70;;;;;;;12.41;100.00;96031.16;5075685;28;20432;-81
2022/05/25 00:49:13;;;;;;;3.10;2.60;;;;;;;12.44;100.00;96040.34;5075743;28;20519;-80
2022/05/25 00:51:44;;;;;;;5.07;2.60;;;;;;;12.33;100.00;96010.91;5075535;28;20498;-81
2022/05/25 00:54:17;;;;;;;3.40;2.87;;;;;;;12.54;100.00;96057.56;5055867;28;20818;-81
2022/05/25 00:56:48;;;;;;;8.73;3.33;;;;;;;12.63;100.00;96042.25;5075796;28;20456;-81
2022/05/25 00:59:20;;;;;;;3.43;3.13;;;;;;;12.69;100.00;96044.31;5076370;28;20448;-80
2022/05/25 01:01:49;;;;;;;3.37;3.17;;;;;;;12.68;100.00;96061.31;5072287;28;20484;-81
2022/05/25 01:04:16;;;;;;;3.57;3.27;;;;;;;12.69;100.00;96046.19;5093249;28;20454;-81
2022/05/25 01:07:18;;;;;;;3.40;3.10;;;;;;;12.80;100.00;96049.06;5075928;28;20439;-81
2022/05/25 01:09:54;;;;;;;6.40;3.53;;;;;;;12.90;100.00;96051.16;5058292;28;20435;-80
2022/05/25 01:12:30;;;;;;;5.53;3.03;;;;;;;12.86;100.00;96045.78;5075259;28;20849;-81
2022/05/25 01:15:09;;;;;;;4.97;3.50;;;;;;;12.88;100.00;96050.75;5075222;28;20514;-80
2022/05/25 01:17:42;;;;;;;3.67;3.37;;;;;;;12.88;100.00;96059.47;5076466;28;20466;-81
2022/05/25 01:20:22;;;;;;;4.53;3.43;;;;;;;12.75;100.00;96047.44;5074887;28;20520;-80
2022/05/25 01:22:55;;;;;;;5.60;3.13;;;;;;;12.77;100.00;96055.81;5071925;28;20551;-80
2022/05/25 01:25:55;;;;;;;5.90;3.30;;;;;;;12.68;100.00;96055.22;5072614;28;20468;-80
2022/05/25 01:28:43;;;;;;;4.13;3.83;;;;;;;12.77;100.00;96055.81;5062653;28;20459;-80
2022/05/25 01:31:36;;;;;;;3.77;3.47;;;;;;;12.77;100.00;96058.47;5072252;28;20496;-80
2022/05/25 01:34:19;;;;;;;15.93;4.27;;;;;;;12.84;100.00;96047.25;5032447;28;20519;-80
2022/05/25 01:36:52;;;;;;;5.50;3.27;;;;;;;12.71;100.00;96028.81;5072355;28;20452;-80
2022/05/25 01:39:24;;;;;;;3.73;3.40;;;;;;;12.75;100.00;96034.19;5072495;28;20499;-80
2022/05/25 01:42:00;;;;;;;3.20;2.90;;;;;;;11.78;100.00;95882.09;5072084;28;20502;-80
2022/05/25 01:44:35;;;;;;;3.77;3.10;;;;;;;12.86;100.00;96051.09;5077232;28;21018;-80
2022/05/25 01:47:05;;;;;;;4.27;2.80;;;;;;;12.73;100.00;96066.38;5073598;28;20408;-80
2022/05/25 01:49:45;;;;;;;3.07;2.87;;;;;;;12.52;100.00;96042.00;5071623;28;20440;-80
2022/05/25 01:52:16;;;;;;;3.67;2.83;;;;;;;12.06;100.00;96027.72;5051943;28;20546;-80
2022/05/25 01:54:58;;;;;;;5.57;3.37;;;;;;;12.24;100.00;96042.13;5066458;28;20466;-80
2022/05/25 01:57:29;;;;;;;5.43;2.97;;;;;;;12.41;100.00;96047.06;5060186;28;20546;-80
2022/05/25 01:59:56;;;;;;;3.00;2.77;;;;;;;12.31;100.00;96010.50;5074270;28;20448;-80
2022/05/25 02:05:15;;;;;;;3.70;3.40;;;;;;;12.89;100.00;96068.19;5076741;28;20506;-80
2022/05/25 02:08:02;;;;;;;2.67;2.47;;;;;;;12.98;100.00;96076.75;5078837;28;20467;-80
2022/05/25 02:10:45;;;;;;;4.30;3.00;;;;;;;12.66;100.00;96033.59;5073098;28;20429;-80
2022/05/25 02:13:53;;;;;;;8.00;3.00;;;;;;;12.90;100.00;96070.50;5071416;28;20563;-80
2022/05/25 02:16:36;;;;;;;3.00;2.77;;;;;;;12.95;100.00;96075.56;5073471;28;20445;-80
2022/05/25 02:19:25;;;;;;;3.10;2.90;;;;;;;12.77;100.00;96058.47;5072080;28;20847;-80
2022/05/25 02:22:02;;;;;;;3.27;2.97;;;;;;;12.68;100.00;96045.41;5059971;28;20492;-80
2022/05/25 02:24:33;;;;;;;3.87;2.80;;;;;;;12.82;100.00;96076.78;5073031;28;20447;-81
2022/05/25 02:27:05;;;;;;;4.30;2.83;;;;;;;12.76;100.00;96074.75;5072127;28;20438;-80
2022/05/25 02:29:39;;;;;;;4.10;3.00;;;;;;;12.67;100.00;96080.22;5055219;28;20528;-80
2022/05/25 02:32:21;;;;;;;3.10;2.90;;;;;;;12.47;100.00;96033.56;5058736;28;20507;-80
2022/05/25 02:34:50;;;;;;;3.43;3.07;;;;;;;12.65;100.00;96069.19;5075886;28;20464;-81
2022/05/25 02:37:20;;;;;;;3.20;2.90;;;;;;;12.86;100.00;96082.16;5077744;28;20839;-81
2022/05/25 02:39:50;;;;;;;3.30;3.00;;;;;;;12.63;100.00;96071.44;5076228;28;20424;-81
2022/05/25 02:42:18;;;;;;;2.77;2.57;;;;;;;12.49;100.00;96077.19;5077639;28;20502;-80
2022/05/25 02:44:45;;;;;;;4.30;2.70;;;;;;;11.78;100.00;95996.75;5056632;28;20433;-80
2022/05/25 02:47:12;;;;;;;2.40;2.30;;;;;;;12.29;100.00;96065.75;5078229;28;20467;-80
2022/05/25 02:49:40;;;;;;;3.77;3.30;;;;;;;12.05;100.00;96023.53;5067400;28;20472;-80
2022/05/25 02:52:08;;;;;;;4.17;3.57;;;;;;;12.47;100.00;96087.38;5076057;28;20520;-81
2022/05/25 02:54:36;;;;;;;3.43;3.23;;;;;;;12.42;100.00;96085.00;5077611;28;20463;-81
2022/05/25 02:57:03;;;;;;;3.40;3.20;;;;;;;12.46;100.00;96103.63;5075140;28;20977;-81
2022/05/25 02:59:30;;;;;;;3.50;3.30;;;;;;;12.03;100.00;96037.13;5076427;28;20466;-81
2022/05/25 03:01:57;;;;;;;4.77;3.20;;;;;;;12.22;100.00;96067.44;5075658;28;20452;-81
2022/05/25 03:04:24;;;;;;;4.77;3.10;;;;;;;11.78;100.00;96039.13;5075576;28;20452;-81
2022/05/25 03:06:51;;;;;;;3.17;2.97;;;;;;;12.00;100.00;96052.91;5077116;28;20456;-81
2022/05/25 03:09:18;;;;;;;2.83;2.63;;;;;;;11.91;100.00;96055.75;5089748;28;20969;-81
2022/05/25 03:11:45;;;;;;;5.10;2.73;;;;;;;12.33;100.00;96101.06;5058970;28;20598;-81
2022/05/25 03:14:11;;;;;;;3.50;3.20;;;;;;;12.42;100.00;96088.41;5075322;28;21191;-81
2022/05/25 03:16:38;;;;;;;3.47;3.17;;;;;;;12.60;100.00;96098.66;5092222;28;20432;-81
2022/05/25 03:19:07;;;;;;;3.33;3.03;;;;;;;12.39;100.00;96081.13;5077551;28;20932;-80
2022/05/25 03:21:33;;;;;;;3.27;2.97;;;;;;;12.24;100.00;96068.66;5077710;28;20521;-81
2022/05/25 03:24:00;;;;;;;3.37;3.17;;;;;;;12.48;100.00;96119.94;5067784;28;20445;-81
2022/05/25 03:26:27;;;;;;;3.30;3.10;;;;;;;12.51;100.00;96119.25;5079708;28;20448;-81
2022/05/25 03:28:54;;;;;;;2.60;2.40;;;;;;;12.34;100.00;96115.84;5061852;28;20436;-81
2022/05/25 03:31:20;;;;;;;3.00;2.77;;;;;;;12.22;100.00;96107.97;5059588;28;20513;-81
2022/05/25 03:33:47;;;;;;;3.00;2.80;;;;;;;12.16;100.00;96088.16;5061555;28;20441;-81
2022/05/25 03:36:14;;;;;;;3.97;3.67;;;;;;;12.09;100.00;96075.47;5078158;28;20523;-82
2022/05/25 03:38:40;;;;;;;3.03;2.83;;;;;;;12.43;100.00;96115.69;5093556;28;20464;-82
2022/05/25 03:41:08;;;;;;;3.73;3.37;;;;;;;12.50;100.00;96120.38;5066191;28;20874;-82
2022/05/25 03:43:38;;;;;;;2.50;2.30;;;;;;;12.58;100.00;96130.06;5083690;28;20519;-79
2022/05/25 03:46:05;;;;;;;3.47;3.17;;;;;;;12.17;100.00;96073.78;5057215;28;20527;-79
2022/05/25 03:48:32;;;;;;;4.10;3.70;;;;;;;12.17;100.00;96126.78;5091532;28;20432;-79
2022/05/25 03:50:59;;;;;;;3.20;3.00;;;;;;;11.81;100.00;96093.31;5075784;28;20464;-79
2022/05/25 03:53:25;;;;;;;3.07;2.87;;;;;;;11.40;100.00;96015.06;5075175;28;21004;-79
2022/05/25 03:55:52;;;;;;;3.10;2.80;;;;;;;11.97;100.00;96117.19;5055428;28;20949;-81
2022/05/25 03:58:18;;;;;;;2.97;2.77;;;;;;;11.88;100.00;96113.91;5084720;28;20451;-80
2022/05/25 04:00:46;;;;;;;4.03;2.57;;;;;;;11.56;100.00;96092.63;5077437;28;20455;-80
2022/05/25 04:03:19;;;;;;;2.23;2.10;;;;;;;11.56;100.00;96087.34;5094254;28;20524;-79
2022/05/25 04:05:46;;;;;;;3.47;3.17;;;;;;;11.59;100.00;96096.47;5095134;28;20917;-79
2022/05/25 04:08:13;;;;;;;4.47;2.43;;;;;;;11.48;100.00;96091.66;5077068;28;20479;-79
2022/05/25 04:10:40;;;;;;;4.80;4.00;;;;;;;11.64;100.00;96107.63;5094453;28;20436;-81
2022/05/25 04:13:06;;;;;;;3.53;2.30;;;;;;;12.04;100.00;96138.56;5075705;28;20464;-81
2022/05/25 04:15:34;;;;;;;3.93;3.53;;;;;;;12.22;100.00;96141.66;5093222;28;20459;-81
2022/05/25 04:18:02;;;;;;;2.40;2.20;;;;;;;12.36;100.00;96144.66;5092608;28;20440;-81
2022/05/25 04:20:30;;;;;;;6.73;2.80;;;;;;;12.47;100.00;96143.06;5094513;28;20425;-81
2022/05/25 04:22:57;;;;;;;2.90;2.60;;;;;;;12.41;100.00;96133.78;5091278;28;20475;-82
2022/05/25 04:25:25;;;;;;;2.90;2.70;;;;;;;12.15;100.00;96105.13;5094037;28;20491;-79
2022/05/25 04:27:53;;;;;;;2.57;2.37;;;;;;;12.24;100.00;96148.16;5110622;28;20441;-79
2022/05/25 04:30:24;;;;;;;2.40;2.20;;;;;;;12.01;100.00;96134.69;5103303;28;20421;-79
2022/05/25 04:32:52;;;;;;;2.93;2.60;;;;;;;12.02;100.00;96146.06;5063844;28;20531;-79
2022/05/25 04:35:19;;;;;;;2.40;2.20;;;;;;;11.83;100.00;96120.22;5073621;28;20429;-79
2022/05/25 04:37:57;;;;;;;3.83;2.53;;;;;;;11.78;100.00;96131.06;5092918;28;20440;-79
2022/05/25 04:40:30;;;;;;;3.70;3.20;;;;;;;12.02;100.00;96152.16;5073444;28;20925;-79
2022/05/25 04:43:00;;;;;;;4.50;3.47;;;;;;;12.05;100.00;96150.72;5077057;28;20496;-78
2022/05/25 04:45:27;;;;;;;3.57;3.13;;;;;;;11.78;100.00;96110.63;5075601;28;20474;-78
2022/05/25 04:47:56;;;;;;;3.00;2.80;;;;;;;12.16;100.00;96162.38;5077412;28;20435;-78
2022/05/25 04:50:25;;;;;;;3.03;2.83;;;;;;;12.02;100.00;96141.56;5073531;28;20967;-78
2022/05/25 04:52:54;;;;;;;3.63;3.30;;;;;;;11.86;100.00;96135.44;5070967;28;20472;-78
2022/05/25 04:58:21;;;;;;;4.80;3.40;;;;;;;11.93;100.00;96162.13;5072533;28;20539;-78
2022/05/25 05:00:48;;;;;;;4.13;3.40;;;;;;;11.92;100.00;96160.59;5084001;28;20492;-78
2022/05/25 05:03:16;;;;;;;4.67;3.47;;;;;;;11.95;100.00;96154.63;5070876;28;20484;-80
2022/05/25 05:05:43;;;;;;;3.90;3.60;;;;;;;11.85;100.00;96147.16;5072048;28;20437;-80
2022/05/25 05:08:11;;;;;;;4.03;3.73;;;;;;;11.71;100.00;96144.09;5076443;28;20444;-81
2022/05/25 05:10:37;;;;;;;4.67;4.17;;;;;;;12.10;100.00;96177.72;5072947;28;20471;-80
2022/05/25 05:13:07;;;;;;;6.97;3.80;;;;;;;12.27;100.00;96194.41;5071092;28;20534;-80
2022/05/25 05:15:44;;;;;;;9.10;3.90;;;;;;;11.81;100.00;96188.69;5072885;28;20489;-81
2022/05/25 05:18:12;;;;;;;3.70;3.50;;;;;;;11.64;100.00;96146.56;5072614;28;21017;-82
2022/05/25 05:20:56;;;;;;;3.57;3.10;;;;;;;11.49;100.00;96166.59;5077524;28;20421;-82
2022/05/25 05:23:22;;;;;;;3.77;3.37;;;;;;;11.63;100.00;96198.00;5063741;28;20527;-82
2022/05/25 05:25:49;;;;;;;3.30;3.10;;;;;;;10.81;100.00;96098.44;5066286;28;20551;-81
2022/05/25 05:28:31;;;;;;;3.83;3.33;;;;;;;11.38;100.00;96186.69;5071463;28;20431;-81
2022/05/25 05:30:59;;;;;;;3.73;3.40;;;;;;;11.57;100.00;96218.63;5055942;28;20428;-82
2022/05/25 05:33:27;;;;;;;3.50;3.20;;;;;;;11.43;100.00;96223.50;5073904;28;20563;-82
2022/05/25 05:36:03;;;;;;;4.37;3.70;;;;;;;11.49;100.00;96230.91;5076204;28;20956;-83
2022/05/25 05:38:32;;;;;;;4.40;3.73;;;;;;;11.43;100.00;96224.28;5077308;28;20882;-83
2022/05/25 05:40:58;;;;;;;3.63;3.33;;;;;;;11.58;100.00;96228.09;5081783;28;20439;-81
2022/05/25 05:43:25;;;;;;;3.70;3.40;;;;;;;11.72;100.00;96225.09;5078615;28;21057;-83
2022/05/25 05:45:55;;;;;;;4.33;3.23;;;;;;;11.70;100.00;96236.03;5071679;28;20782;-82
2022/05/25 05:48:28;;;;;;;3.17;2.90;;;;;;;11.76;100.00;96223.34;5070494;28;20447;-81
2022/05/25 05:50:56;;;;;;;4.93;2.93;;;;;;;12.02;100.00;96276.72;5074904;28;20455;-82
2022/05/25 05:53:26;;;;;;;3.00;2.80;;;;;;;11.66;100.00;96243.09;5075869;28;20473;-83
2022/05/25 05:55:53;;;;;;;3.60;3.17;;;;;;;11.95;100.00;96273.84;5057471;28;20449;-82
2022/05/25 05:58:20;;;;;;;4.50;3.27;;;;;;;11.53;100.00;96207.16;5079490;28;20447;-82
2022/05/25 06:00:47;;;;;;;3.40;3.10;;;;;;;11.87;100.00;96242.94;5075392;28;20459;-81
2022/05/25 06:03:14;;;;;;;7.20;2.90;;;;;;;12.08;100.00;96266.63;5078125;28;20506;-81
2022/05/25 06:05:43;;;;;;;5.70;3.00;;;;;;;11.14;100.00;96134.56;5081136;28;20823;-82
2022/05/25 06:08:18;;;;;;;3.37;3.07;;;;;;;12.14;100.00;96291.78;5079911;28;20440;-83
2022/05/25 06:10:46;;;;;;;3.43;3.03;;;;;;;12.11;100.00;96292.47;5095692;28;20486;-83
2022/05/25 06:13:13;;;;;;;3.33;2.80;;;;;;;11.76;100.00;96225.97;5077970;28;20563;-83
2022/05/25 06:21:19;;;;;;;4.27;3.93;;;;;;;12.20;100.00;96294.97;5078759;28;20534;-82
2022/05/25 06:23:46;;;;;;;4.20;3.80;;;;;;;12.25;100.00;96302.69;5090443;28;20511;-82
2022/05/25 06:26:14;;;;;;;4.70;4.30;;;;;;;12.43;100.00;96315.34;5062874;28;20470;-82
2022/05/25 06:28:44;;;;;;;4.03;3.73;;;;;;;12.28;100.00;96329.28;5079328;28;20444;-83
2022/05/25 06:31:11;;;;;;;5.50;4.73;;;;;;;12.11;100.00;96330.34;5078270;28;20820;-82
2022/05/25 06:33:38;;;;;;;5.37;3.80;;;;;;;12.12;100.00;96315.97;5077914;28;20468;-81
2022/05/25 06:36:23;;;;;;;3.27;3.00;;;;;;;12.37;100.00;96347.72;5072557;28;20445;-81
2022/05/25 06:38:50;;;;;;;5.97;3.43;;;;;;;12.08;100.00;96306.38;5077748;28;20459;-79
2022/05/25 06:41:17;;;;;;;3.87;3.57;;;;;;;12.08;100.00;96336.31;5086430;28;20935;-80
2022/05/25 06:43:44;;;;;;;3.23;3.03;;;;;;;12.00;100.00;96325.84;5067621;28;20506;-80
2022/05/25 06:46:14;;;;;;;3.80;3.50;;;;;;;12.16;100.00;96325.91;5078729;28;20479;-82
2022/05/25 06:48:48;;;;;;;11.40;10.30;;;;;;;12.02;100.00;96313.00;5078009;28;20412;-81
2022/05/25 06:51:22;;;;;;;4.73;3.10;;;;;;;12.18;100.00;96350.97;5076872;28;20436;-82
2022/05/25 06:53:49;;;;;;;4.13;3.83;;;;;;;12.17;100.00;96344.13;5076213;28;20463;-82
2022/05/25 06:56:18;;;;;;;3.80;3.40;;;;;;;12.39;100.00;96356.88;5095679;28;20589;-82
2022/05/25 06:58:45;;;;;;;4.47;3.13;;;;;;;12.30;100.00;96358.91;5083193;28;20610;-81
2022/05/25 07:01:12;;;;;;;4.27;3.87;;;;;;;11.95;100.00;96300.34;5085611;28;20547;-82
2022/05/25 07:03:39;;;;;;;8.50;3.50;;;;;;;12.31;100.00;96349.06;5082729;28;20432;-83
2022/05/25 07:06:07;;;;;;;3.87;3.57;;;;;;;12.17;100.00;96348.66;5061639;28;20444;-82
2022/05/25 07:08:35;;;;;;;4.13;3.80;;;;;;;11.92;100.00;96316.16;5057673;28;20472;-81
2022/05/25 07:11:03;;;;;;;4.70;4.20;;;;;;;12.02;100.00;96327.06;5087330;28;20432;-82
2022/05/25 07:13:30;;;;;;;4.70;4.10;;;;;;;12.08;100.00;96341.59;5075011;28;20882;-81
2022/05/25 07:15:59;;;;;;;3.80;3.37;;;;;;;12.17;100.00;96330.88;5089279;28;20431;-81
2022/05/25 07:18:26;;;;;;;3.90;3.60;;;;;;;11.49;100.00;96241.50;5076364;28;20986;-82
2022/05/25 07:20:53;;;;;;;3.50;3.20;;;;;;;11.93;100.00;96307.09;5059120;28;20504;-80
2022/05/25 07:23:19;;;;;;;3.93;3.50;;;;;;;11.68;100.00;96298.38;5070485;28;20811;-80
2022/05/25 07:25:46;;;;;;;4.03;3.73;;;;;;;11.77;100.00;96288.44;5079534;28;20429;-81
2022/05/25 07:28:13;;;;;;;4.70;3.33;;;;;;;12.01;100.00;96298.22;5090628;28;20436;-80
2022/05/25 07:30:39;;;;;;;3.83;3.37;;;;;;;12.08;100.00;96303.75;5089564;28;20961;-79
2022/05/25 07:33:06;;;;;;;6.00;5.50;;;;;;;12.15;100.00;96341.03;5077965;28;20459;-78
2022/05/25 07:35:33;;;;;;;6.90;5.73;;;;;;;12.15;100.00;96359.59;5074438;28;20527;-78
2022/05/25 07:38:00;;;;;;;4.63;3.37;;;;;;;12.19;100.00;96351.75;5084325;28;20463;-78
2022/05/25 07:40:31;;;;;;;3.87;3.47;;;;;;;12.48;100.00;96401.81;5065419;28;20934;-78
2022/05/25 07:43:04;;;;;;;3.80;3.50;;;;;;;12.36;100.00;96394.66;5096653;28;20440;-78
2022/05/25 07:45:32;;;;;;;3.70;3.23;;;;;;;12.25;100.00;96385.63;5079708;28;20460;-79
2022/05/25 07:48:00;;;;;;;8.93;2.90;;;;;;;12.48;100.00;96401.06;5058853;28;20440;-79
2022/05/25 07:50:34;;;;;;;3.97;3.67;;;;;;;12.12;100.00;96325.81;5094936;28;21027;-79
2022/05/25 07:53:01;;;;;;;3.37;2.93;;;;;;;12.38;100.00;96376.53;5078356;28;20503;-79
2022/05/25 07:55:28;;;;;;;3.33;2.60;;;;;;;11.88;100.00;96316.03;5064580;28;20429;-78
2022/05/25 07:57:55;;;;;;;4.37;3.57;;;;;;;11.41;100.00;96218.53;5078096;28;20451;-79
2022/05/25 08:00:25;;;;;;;2.47;2.27;;;;;;;12.78;100.00;96381.03;5067235;28;20437;-80
2022/05/25 08:05:43;;;;;;;2.67;2.47;;;;;;;12.69;100.00;96369.81;5077810;28;20416;-79
2022/05/25 08:08:23;;;;;;;2.73;2.53;;;;;;;12.85;100.00;96381.25;5077372;28;20416;-77
2022/05/25 08:11:04;;;;;;;4.00;3.70;;;;;;;13.27;100.00;96410.78;5083722;28;20471;-79
2022/05/25 08:13:33;;;;;;;4.00;2.23;;;;;;;13.27;100.00;96410.78;5101823;28;20531;-79
2022/05/25 08:16:08;;;;;;;2.70;2.50;;;;;;;13.32;100.00;96413.19;5083427;28;20455;-80
2022/05/25 08:18:36;;;;;;;2.50;2.30;;;;;;;13.39;100.00;96393.25;5066368;28;20450;-79
2022/05/25 08:21:04;;;;;;;2.93;2.73;;;;;;;13.26;100.00;96376.63;5081005;28;20451;-78
2022/05/25 08:23:31;;;;;;;3.53;3.33;;;;;;;13.56;100.00;96396.31;5063773;28;20446;-80
2022/05/25 08:25:58;;;;;;;2.57;2.37;;;;;;;13.44;100.00;96377.81;5098997;28;20458;-78
2022/05/25 08:28:25;;;;;;;3.20;2.70;;;;;;;13.50;100.00;96373.81;5080679;28;20443;-80
2022/05/25 08:30:51;;;;;;;2.07;1.97;;;;;;;13.58;100.00;96398.63;5100716;28;20489;-81
2022/05/25 08:33:20;;;;;;;2.03;1.90;;;;;;;13.64;100.00;96396.50;5091648;28;20685;-80
2022/05/25 08:35:48;;;;;;;1.77;1.67;;;;;;;13.69;100.00;96410.28;5093579;28;20460;-81
2022/05/25 08:38:16;;;;;;;2.37;2.17;;;;;;;13.49;100.00;96388.19;5089954;28;20503;-81
2022/05/25 08:40:45;;;;;;;2.33;1.87;;;;;;;13.50;100.00;96402.25;5085868;28;20451;-81
2022/05/25 08:43:24;;;;;;;2.03;1.93;;;;;;;13.59;100.00;96413.47;5089950;28;20792;-81
2022/05/25 08:46:02;;;;;;;4.50;2.53;;;;;;;13.66;100.00;96411.00;5089656;28;20438;-81
2022/05/25 08:48:30;;;;;;;2.30;2.10;;;;;;;13.48;100.00;96386.63;5085573;28;20421;-80
2022/05/25 08:51:02;;;;;;;2.23;2.10;;;;;;;13.73;100.00;96400.50;5072659;28;20516;-80
2022/05/25 08:53:33;;;;;;;2.40;2.20;;;;;;;14.01;100.00;96420.88;5069806;28;21006;-81
2022/05/25 08:56:12;;;;;;;2.50;2.30;;;;;;;13.95;100.00;96427.59;5083168;28;20439;-80
2022/05/25 08:58:47;;;;;;;2.40;2.20;;;;;;;13.84;100.00;96392.78;5078996;28;20430;-81
2022/05/25 09:01:27;;;;;;;2.20;1.90;;;;;;;14.12;100.00;96421.91;5083997;28;20984;-80
2022/05/25 09:04:06;;;;;;;2.53;2.33;;;;;;;13.78;100.00;96384.31;5077294;28;20448;-80
2022/05/25 09:06:47;;;;;;;2.50;2.40;;;;;;;13.90;100.00;96432.06;5080666;28;20468;-81
2022/05/25 09:09:42;;;;;;;4.60;2.50;;;;;;;13.96;100.00;96429.91;5077738;28;20490;-79
2022/05/25 09:12:22;;;;;;;2.13;2.00;;;;;;;13.99;100.00;96417.81;5042037;28;20488;-79
2022/05/25 09:15:12;;;;;;;3.80;2.27;;;;;;;14.30;100.00;96411.66;5076410;28;20471;-80
2022/05/25 09:17:47;;;;;;;2.50;2.30;;;;;;;14.53;100.00;96343.38;5085085;28;20431;-80
2022/05/25 09:20:20;;;;;;;3.07;2.87;;;;;;;15.04;100.00;96412.41;5093007;28;20423;-79
2022/05/25 09:22:52;;;;;;;2.43;2.17;;;;;;;15.59;100.00;96421.75;5058973;28;20466;-79
2022/05/25 09:25:22;;;;;;;4.97;3.00;;;;;;;15.47;100.00;96421.91;5075349;28;20429;-79
2022/05/25 09:28:00;;;;;;;3.07;2.30;;;;;;;16.14;100.00;96422.22;5078609;28;20466;-79
2022/05/25 09:30:29;;;;;;;2.20;2.10;;;;;;;16.50;100.00;96415.47;5080165;28;20539;-79
2022/05/25 09:33:01;;;;;;;2.30;2.10;;;;;;;16.20;100.00;96454.72;5072857;28;20483;-78
2022/05/25 09:35:31;;;;;;;2.00;1.90;;;;;;;16.37;100.00;96424.06;5074598;28;20856;-78
2022/05/25 09:38:11;;;;;;;2.47;1.90;;;;;;;16.48;100.00;96452.44;5092433;28;20466;-78
2022/05/25 09:40:44;;;;;;;5.53;2.40;;;;;;;16.74;100.00;96454.34;5075591;28;20959;-79
2022/05/25 09:43:17;;;;;;;4.83;3.23;;;;;;;16.82;100.00;96455.19;5056130;28;20460;-79
2022/05/25 09:45:48;;;;;;;2.93;2.33;;;;;;;17.02;100.00;96437.88;5079002;28;20431;-78
2022/05/25 09:48:27;;;;;;;3.20;2.20;;;;;;;17.57;100.00;96466.69;5092365;28;20821;-78
2022/05/25 09:51:02;;;;;;;2.83;2.47;;;;;;;17.82;100.00;96472.28;5074210;28;20519;-79
2022/05/25 09:53:38;;;;;;;2.60;2.30;;;;;;;17.67;100.00;96466.03;5071912;28;20806;-76
2022/05/25 09:56:15;;;;;;;15.20;2.27;;;;;;;17.63;100.00;96455.31;5080857;28;20470;-79
2022/05/25 09:58:47;;;;;;;2.90;2.00;;;;;;;17.79;100.00;96454.31;5078957;28;20529;-78
2022/05/25 10:01:23;;;;;;;5.17;2.10;;;;;;;18.19;100.00;96456.91;5059070;28;20532;-81
2022/05/25 10:03:50;;;;;;;2.57;1.23;;;;;;;17.86;99.42;96449.00;5087438;28;21051;-80
2022/05/25 10:06:23;;;;;;;2.23;1.50;;;;;;;18.09;100.00;96452.25;5095565;28;20486;-81
2022/05/25 10:09:21;;;;;;;1.50;1.40;;;;;;;17.03;100.00;96434.06;5083440;28;20427;-78
2022/05/25 10:12:00;;;;;;;1.70;1.60;;;;;;;17.01;100.00;96449.69;5055531;28;20467;-78
2022/05/25 10:14:34;;;;;;;3.00;1.67;;;;;;;16.23;100.00;96420.06;5079129;28;20505;-78
2022/05/25 10:17:09;;;;;;;2.10;1.43;;;;;;;15.81;100.00;96401.56;5074322;28;20495;-78
2022/05/25 10:19:46;;;;;;;1.50;1.30;;;;;;;16.33;100.00;96456.06;5076531;28;20430;-81
2022/05/25 10:22:33;;;;;;;1.50;1.40;;;;;;;16.24;100.00;96455.53;5083960;28;20436;-80
2022/05/25 10:25:25;;;;;;;2.10;1.60;;;;;;;16.22;100.00;96453.22;5087648;28;20428;-80
2022/05/25 10:27:52;;;;;;;1.97;1.33;;;;;;;16.02;100.00;96443.75;5092886;28;20553;-80
2022/05/25 10:39:15;;;;;;;3.40;1.77;;;;;;;15.95;100.00;96451.66;5083589;28;20435;-81
2022/05/25 10:41:44;;;;;;;3.63;1.60;;;;;;;16.02;100.00;96425.09;5067130;28;20456;-81
2022/05/25 10:44:21;;;;;;;1.87;1.43;;;;;;;16.26;100.00;96382.00;5095657;28;20531;-80
2022/05/25 10:46:57;;;;;;;2.90;1.60;;;;;;;17.23;100.00;96456.06;5065568;28;20440;-80
2022/05/25 10:49:36;;;;;;;1.50;1.13;;;;;;;17.05;91.04;96436.38;5082936;28;21126;-82
2022/05/25 10:52:07;;;;;;;5.70;1.83;;;;;;;17.36;91.76;96387.03;5094510;28;20946;-79
2022/05/25 10:54:46;;;;;;;1.63;1.20;;;;;;;18.31;93.83;96450.50;5078933;28;20460;-79
2022/05/25 10:57:45;;;;;;;2.90;1.53;;;;;;;18.77;92.07;96453.44;5081066;28;20958;-78
2022/05/25 11:00:34;;;;;;;2.00;1.10;;;;;;;18.36;81.55;96452.81;5078984;28;20948;-79
2022/05/25 11:03:31;;;;;;;2.87;1.30;;;;;;;17.88;86.94;96449.41;5079961;28;20452;-81
2022/05/25 11:06:25;;;;;;;2.70;1.47;;;;;;;17.36;82.84;96453.88;5086046;28;20436;-81
2022/05/25 11:09:23;;;;;;;1.73;1.53;;;;;;;17.21;86.77;96449.53;5090938;28;20890;-80
2022/05/25 11:11:59;;;;;;;4.33;1.30;;;;;;;17.44;81.20;96450.91;5098164;28;20493;-78
2022/05/25 11:14:55;;;;;;;1.30;1.20;;;;;;;17.14;76.90;96458.25;5082586;28;20467;-78
2022/05/25 11:17:49;;;;;;;1.93;1.27;;;;;;;17.03;79.54;96457.34;5077968;28;20479;-79
2022/05/25 11:20:35;;;;;;;1.40;1.30;;;;;;;16.74;83.73;96450.91;5064196;28;20987;-77
2022/05/25 11:23:09;;;;;;;5.43;1.83;;;;;;;16.76;80.75;96457.41;5075589;28;20468;-79
2022/05/25 11:25:42;;;;;;;1.20;0.97;;;;;;;16.76;83.43;96461.97;5080278;28;20494;-80
2022/05/25 11:28:34;;;;;;;2.70;1.30;;;;;;;16.70;81.02;96468.78;5081453;28;20452;-80
2022/05/25 11:31:15;;;;;;;1.23;1.13;;;;;;;16.74;83.25;96462.34;5083608;28;20439;-80
2022/05/25 11:34:05;;;;;;;2.13;1.20;;;;;;;17.00;81.69;96464.19;5089590;28;20519;-81
2022/05/25 11:37:11;;;;;;;1.10;1.00;;;;;;;16.96;82.68;96468.72;5086843;28;20494;-79
2022/05/25 11:39:57;;;;;;;1.90;1.03;;;;;;;16.90;78.98;96459.47;5094772;28;20858;-80
2022/05/25 11:42:47;;;;;;;1.30;1.00;;;;;;;18.10;77.12;96472.53;5080819;28;20460;-80
2022/05/25 11:45:14;;;;;;;1.10;1.00;;;;;;;18.98;73.77;96476.13;5079320;28;20431;-81
2022/05/25 11:48:11;;;;;;;4.50;1.40;;;;;;;18.37;71.02;96440.19;5080192;28;20486;-80
2022/05/25 11:51:02;;;;;;;3.33;1.30;;;;;;;18.30;71.09;96416.84;5079839;28;20432;-81
2022/05/25 11:53:31;;;;;;;1.10;1.00;;;;;;;18.99;67.95;96458.91;5096237;28;20506;-80
2022/05/25 11:56:01;;;;;;;1.13;1.00;;;;;;;18.86;65.36;96467.28;5057894;28;20840;-79
2022/05/25 11:58:43;;;;;;;3.60;1.10;;;;;;;19.28;64.34;96465.88;5090500;28;20542;-78
2022/05/25 12:01:19;;;;;;;1.07;0.97;;;;;;;19.67;63.50;96466.00;5090924;28;20487;-80
2022/05/25 12:04:08;;;;;;;1.13;1.03;;;;;;;20.01;63.30;96457.56;5068752;28;20447;-77
2022/05/25 12:06:52;;;;;;;2.77;1.10;;;;;;;20.20;62.37;96461.78;5079719;28;20469;-77
2022/05/25 12:09:28;;;;;;;2.87;1.30;;;;;;;20.04;59.42;96462.19;5079519;28;20440;-76
2022/05/25 12:12:30;;;;;;;1.40;1.20;;;;;;;18.68;59.92;96436.16;5082594;28;21132;-76
2022/05/25 12:15:09;;;;;;;1.23;1.13;;;;;;;19.03;60.78;96427.50;5079725;28;20501;-77
2022/05/25 12:17:49;;;;;;;1.40;0.97;;;;;;;18.84;61.08;96453.50;5078736;28;20505;-78
2022/05/25 12:20:32;;;;;;;2.20;0.80;;;;;;;18.55;63.40;96408.91;5092270;28;20870;-77